Yong Yue 7 — BKPG4 — position and weather

sailwx.info

Track history (hours):
 
Tides and Currents Weather Stations Pressure Air Temp Water Temp Dewpoint Dewpoint Depression Visibility Wind Speed Wind Dir Waves Ship Positions

Yong Yue 7

Last reported at 2017-Nov-19 17:36 UTC. Time now 2017-Nov-24 14:58 UTC.
Position N 37°27' E 122°12'.

Length 133 m; draft 5.8 m.

Type: Cargo ship. MMSI: 413415730.

Date/timePositionNaut miles runAvg speedWind from/ knotsBaromVisibWave heightAir tempDewpointWater temp
2017-Nov-19 17:36N 37°27' E 122°12'0 0.5
2017-Nov-19 17:30N 37°27' E 122°12'0 1.0
2017-Nov-19 17:00N 37°27' E 122°11'2 3.8
2017-Nov-19 16:30N 37°28' E 122°13'3 6.7
2017-Nov-19 15:59N 37°31' E 122°17'  
2017-Nov-11 21:50N 37°35' E 122°16'412.3
2017-Nov-11 21:30N 37°31' E 122°16'510.3
2017-Nov-11 21:00N 37°27' E 122°11'0 0.1
2017-Nov-11 20:30N 37°27' E 122°12'0 0.0
2017-Nov-11 20:00N 37°27' E 122°12'0 0.0
2017-Nov-11 19:20N 37°27' E 122°12'0 0.0
2017-Nov-11 17:44N 37°27' E 122°12'0 0.0
2017-Nov-11 17:08N 37°27' E 122°12'0 0.0
2017-Nov-11 16:56N 37°27' E 122°12'0 0.1
2017-Nov-11 16:30N 37°27' E 122°11'0 1.0
2017-Nov-11 16:00N 37°27' E 122°11'5 9.6
2017-Nov-11 15:29N 37°31' E 122°16'1 2.9
2017-Nov-11 15:00N 37°31' E 122°17'0 0.2
2017-Nov-11 14:19N 37°31' E 122°17'0 0.0
2017-Nov-11 11:30N 37°31' E 122°17'  
Track history (hours):
 
Tides and Currents Weather Stations Pressure Air Temp Water Temp Dewpoint Dewpoint Depression Visibility Wind Speed Wind Dir Waves Ship Positions

Yong Yue 7

Last reported at 2017-Nov-19 17:36 UTC. Time now 2017-Nov-24 14:58 UTC.
Position N 37°27' E 122°12'.

Length 133 m; draft 5.8 m.

Type: Cargo ship. MMSI: 413415730.

Date/timePositionNaut miles runAvg speedWind from/ knotsBaromVisibWave heightAir tempDewpointWater temp
2017-Nov-19 17:36N 37°27' E 122°12'0 0.5
2017-Nov-19 17:30N 37°27' E 122°12'0 1.0
2017-Nov-19 17:00N 37°27' E 122°11'2 3.8
2017-Nov-19 16:30N 37°28' E 122°13'3 6.7
2017-Nov-19 15:59N 37°31' E 122°17'  
2017-Nov-11 21:50N 37°35' E 122°16'412.3
2017-Nov-11 21:30N 37°31' E 122°16'510.3
2017-Nov-11 21:00N 37°27' E 122°11'0 0.1
2017-Nov-11 20:30N 37°27' E 122°12'0 0.0
2017-Nov-11 20:00N 37°27' E 122°12'0 0.0
2017-Nov-11 19:20N 37°27' E 122°12'0 0.0
2017-Nov-11 17:44N 37°27' E 122°12'0 0.0
2017-Nov-11 17:08N 37°27' E 122°12'0 0.0
2017-Nov-11 16:56N 37°27' E 122°12'0 0.1
2017-Nov-11 16:30N 37°27' E 122°11'0 1.0
2017-Nov-11 16:00N 37°27' E 122°11'5 9.6
2017-Nov-11 15:29N 37°31' E 122°16'1 2.9
2017-Nov-11 15:00N 37°31' E 122°17'0 0.2
2017-Nov-11 14:19N 37°31' E 122°17'0 0.0
2017-Nov-11 11:30N 37°31' E 122°17'  

Dump ship's entire track history